This is the latest recevied weather packets stored in our database for station/object KC5TIL. If no packets are shown the sender has not sent any weather packets the latest 10 day(s).
| Time | Temp. | Humidity | Pressure | Rain* | Wind** | Luminosity | Snow |
|---|---|---|---|---|---|---|---|
| 1777834029 | 28.33° C | 35% | 1019.9 hPa | 0 mm | - | 730 W/m² | - |
| 1777833726 | 28.33° C | 33% | 1020.2 hPa | 0 mm | - | 735 W/m² | - |
| 1777833423 | 28.33° C | 32% | 1020.3 hPa | 0 mm | - | 718 W/m² | - |
| 1777833120 | 28.33° C | 35% | 1020.2 hPa | 0 mm | - | 714 W/m² | - |
| 1777832818 | 28.33° C | 35% | 1020.4 hPa | 0 mm | - | 730 W/m² | - |
| 1777832516 | 27.78° C | 36% | 1020.5 hPa | 0 mm | - | 734 W/m² | - |
| 1777832212 | 27.78° C | 36% | 1020.7 hPa | 0 mm | - | 735 W/m² | - |
| 1777831909 | 27.78° C | 36% | 1020.5 hPa | 0 mm | - | 743 W/m² | - |
| 1777831606 | 27.78° C | 37% | 1021 hPa | 0 mm | - | 742 W/m² | - |
| 1777831304 | 27.22° C | 38% | 1020.9 hPa | 0 mm | - | 753 W/m² | - |
| 1777831001 | 27.22° C | 41% | 1020.9 hPa | 0 mm | - | 741 W/m² | - |
| 1777830698 | 27.22° C | 39% | 1021.1 hPa | 0 mm | - | 674 W/m² | - |
| 1777830394 | 26.67° C | 40% | 1021.2 hPa | 0 mm | - | 622 W/m² | - |
| 1777830092 | 26.67° C | 39% | 1021.6 hPa | 0 mm | - | 696 W/m² | - |
| 1777829787 | 27.22° C | 38% | 1021.5 hPa | 0 mm | - | 753 W/m² | - |
| 1777829484 | 27.22° C | 40% | 1021.4 hPa | 0 mm | - | 754 W/m² | - |
| 1777829181 | 26.67° C | 40% | 1021.7 hPa | 0 mm | - | 759 W/m² | - |
| 1777828878 | 27.22° C | 43% | 1021.6 hPa | 0 mm | - | 770 W/m² | - |
| 1777828574 | 27.22° C | 43% | 1021.9 hPa | 0 mm | - | 751 W/m² | - |
| 1777828272 | 26.67° C | 44% | 1022.1 hPa | 0 mm | - | 763 W/m² | - |
| 1777827969 | 26.67° C | 44% | 1022.1 hPa | 0 mm | - | 776 W/m² | - |
| 1777827665 | 26.11° C | 44% | 1022.2 hPa | 0 mm | - | 777 W/m² | - |
| 1777827363 | 26.67° C | 44% | 1022.2 hPa | 0 mm | - | 796 W/m² | - |
| 1777827058 | 26.11° C | 47% | 1022.1 hPa | 0 mm | - | 803 W/m² | - |
| 1777826755 | 26.11° C | 45% | 1022.4 hPa | 0 mm | - | 802 W/m² | - |
* Rain latest hour (hover to see other rain measurements)
** Current wind speed in m/s (hover to see current wind gust speed)